Portada
METAR-TAF:

METAR-TAF

Aeroports :

Ponta Delgada, Açores, Portugal

latitud: 37-44N, longitud: 025-42W, altitud: 71 m

Observació

L'informe es va fer fa 18 minuts, a les 01:30 UTC
Vent 4 kt del Nord
Temperatura 18°C
Humitat 83%
Pressió 1019 hPa
Visibilitat 10 km o més
Escasses núvols a una alçada de 2000 ft

METAR: LPPD 070130Z 35004KT 9999 FEW020 18/15 Q1019

Hora: 01:48 (01:48 UTC)

Pronòstic

L'informe es va fer fa 2 hores i 48 minuts, a les 23:00 UTC
Pronòstic vàlid del 07 a les 00 UTC al 07 a les 24 UTC
Vent 5 kt amb direcció variable
Visibilitat 10 km o més
Núvols disperses a una alçada de 1800 ft
Evolucionant progressivament
l' 07 a les 10 UTC al 07 a les 12 UTC
Vent 7 kt del Oest
Núvols disperses a una alçada de 1500 ft
Cel ennuvolat a una alçada de 3500 ft

TAF: LPPD 062300Z 0700/0724 VRB05KT 9999 SCT018 BECMG 0710/0712 26007KT SCT015 BKN035

Observacions i pronòstics meteorològics de més de 4000 aeroports (METAR i TAF).

Les estacions disponibles són els punts grocs i vermells al mapa.

Posi el ratolí al punt desitjat per veure el nom de l'estació.

Feu clic per veure les observacions i els pronòstics meteorològics.

Per canviar el mapa: feu clic els botons verds amb una creu de color negre per apropar; al botó verd amb un guió per allunyar la imatge; o en les fletxes verdes per a mapes adjacents.


METAR-TAF: